»·PEaware :: UAL270 KDEN-KBOI

UAL270 :: KDEN-KBOI

FLIGHT INFORMATION

Flight Status: Arrived
Operator:
United Airlines
More flights by this operator :: More flights under this callsign
Pilot: Colin A. (19898)
Aircraft: BOEING 737-800
(B738)
More flights by this aircraft type
Origin: KDEN Denver Intl
United States
Destination: KBOI Boise Air Terminal/Gowen
United States
More flights between these airports :: More routes between these airports
Route: +FOOOT3 RLG MLD REAPS KOURT3
File this flight plan on PilotEdge
Remarks: PBN / A1B1C1D1S1S2 DOF / 180728 REG / N806SB EET / KZLC0039 OPR / UAL PER / C RMK / TCAS SIMBRIEF
Altitude:
(Current/Filed)
36,000ft
Speed:
(Current/Filed)
461kts
Departed: 27-Jul-18 06:36 PM
Arrived: 27-Jul-18 08:04 PM
Distance/Time
Traveled:
563nm/1:28
Distance/Time
To Go:
Arrived

Flight Plot

Page will automatically refresh every two minutes.

Flight plan parsing failed; only flown route is shown


Map Options




Map Legend


Flown Route
Filed Route
Departure Airport
Arrival Airport
Navaid (VOR, NDB)
Fix

Horizontal Profiles

Position Reports

Time Latitude Longitude Heading Altitude Ground
Speed
27-Jul-18 18:05 39.858251 -104.675328 0 5439ft 0kts
27-Jul-18 18:06 39.858251 -104.675328 0 5439ft 0kts
27-Jul-18 18:07 39.858251 -104.675328 0 5439ft 0kts
27-Jul-18 18:08 39.858251 -104.675328 0 5439ft 0kts
27-Jul-18 18:09 39.858251 -104.675328 0 5439ft 0kts
27-Jul-18 18:10 39.858251 -104.675328 0 5439ft 0kts
27-Jul-18 18:11 39.858251 -104.675328 0 5439ft 0kts
27-Jul-18 18:12 39.858251 -104.675328 0 5439ft 0kts
27-Jul-18 18:13 39.858251 -104.675328 0 5439ft 0kts
27-Jul-18 18:14 39.858251 -104.675328 0 5439ft 0kts
27-Jul-18 18:15 39.858251 -104.675328 0 5439ft 0kts
27-Jul-18 18:16 39.858251 -104.675328 0 5439ft 0kts
27-Jul-18 18:17 39.858251 -104.675328 0 5439ft 0kts
27-Jul-18 18:18 39.858251 -104.675328 0 5439ft 0kts
27-Jul-18 18:19 39.858251 -104.675328 0 5439ft 0kts
27-Jul-18 18:20 39.858251 -104.675328 0 5439ft 0kts
27-Jul-18 18:21 39.858251 -104.675328 0 5439ft 0kts
27-Jul-18 18:22 39.858251 -104.675328 0 5439ft 0kts
27-Jul-18 18:23 39.858251 -104.675328 0 5439ft 0kts
27-Jul-18 18:24 39.858251 -104.675328 0 5439ft 0kts
27-Jul-18 18:25 39.858251 -104.675328 0 5439ft 0kts
27-Jul-18 18:26 39.858251 -104.675328 0 5439ft 0kts
27-Jul-18 18:27 39.858251 -104.675328 0 5439ft 0kts
27-Jul-18 18:28 39.857827 -104.675325 359 5439ft 2kts
27-Jul-18 18:29 39.857691 -104.675324 0 5439ft 0kts
27-Jul-18 18:30 39.857691 -104.675324 0 5439ft 0kts
27-Jul-18 18:31 39.857729 -104.675337 341 5439ft 0kts
27-Jul-18 18:32 39.857304 -104.678763 268 5439ft 19kts
27-Jul-18 18:33 39.856895 -104.684588 274 5439ft 15kts
27-Jul-18 18:34 39.862985 -104.685032 0 5439ft 14kts
27-Jul-18 18:35 39.864316 -104.685498 270 5439ft 0kts
27-Jul-18 18:36 39.864316 -104.685500 270 5439ft 0kts
27-Jul-18 18:37 39.872956 -104.687131 1 5439ft 117kts
27-Jul-18 18:38 39.919708 -104.704154 298 7274ft 208kts
27-Jul-18 18:39 39.931001 -104.790106 277 9070ft 267kts
27-Jul-18 18:40 39.941550 -104.891811 277 10013ft 302kts
27-Jul-18 18:41 39.948640 -105.016519 277 10993ft 360kts
27-Jul-18 18:42 39.964591 -105.146262 278 12000ft 361kts
27-Jul-18 18:43 39.979546 -105.275478 278 11991ft 361kts
27-Jul-18 18:44 39.983142 -105.407799 267 14222ft 367kts
27-Jul-18 18:45 39.978641 -105.541729 267 16055ft 375kts
27-Jul-18 18:46 39.974639 -105.677242 267 16398ft 373kts
27-Jul-18 18:47 39.971963 -105.814076 268 18974ft 382kts
27-Jul-18 18:48 39.975600 -105.954947 274 21471ft 395kts
27-Jul-18 18:49 39.984580 -106.100426 273 23584ft 408kts
27-Jul-18 18:50 39.992719 -106.249561 272 25548ft 417kts
27-Jul-18 18:51 40.001316 -106.401819 277 27265ft 426kts
27-Jul-18 18:52 40.045024 -106.547163 295 28814ft 438kts
27-Jul-18 18:53 40.101930 -106.689573 294 30345ft 441kts
27-Jul-18 18:54 40.158018 -106.830614 294 32099ft 435kts
27-Jul-18 18:55 40.213933 -106.969911 294 33699ft 430kts
27-Jul-18 18:56 40.268828 -107.107910 294 35157ft 426kts
27-Jul-18 18:57 40.323460 -107.246194 293 36162ft 429kts
27-Jul-18 18:58 40.378050 -107.385035 293 36163ft 425kts
27-Jul-18 18:59 40.432223 -107.523439 293 36146ft 425kts
27-Jul-18 19:00 40.486074 -107.661806 293 36143ft 425kts
27-Jul-18 19:01 40.540148 -107.801386 293 36143ft 427kts
27-Jul-18 19:02 40.593733 -107.940336 293 36138ft 426kts
27-Jul-18 19:03 40.647146 -108.079527 292 36129ft 429kts
27-Jul-18 19:04 40.700559 -108.219300 292 36123ft 426kts
27-Jul-18 19:05 40.753914 -108.359546 292 36128ft 428kts
27-Jul-18 19:06 40.807135 -108.500207 292 36124ft 427kts
27-Jul-18 19:07 40.860045 -108.640721 292 36127ft 427kts
27-Jul-18 19:08 40.912881 -108.781749 291 36126ft 427kts
27-Jul-18 19:09 40.965444 -108.922710 291 36106ft 429kts
27-Jul-18 19:10 41.018142 -109.064718 291 36108ft 428kts
27-Jul-18 19:11 41.070708 -109.207022 291 36123ft 431kts
27-Jul-18 19:12 41.122988 -109.349272 290 36129ft 428kts
27-Jul-18 19:13 41.175052 -109.491659 290 36136ft 429kts
27-Jul-18 19:14 41.226869 -109.634066 290 36147ft 430kts
27-Jul-18 19:15 41.278461 -109.776569 290 36156ft 429kts
27-Jul-18 19:16 41.330377 -109.920583 290 36169ft 430kts
27-Jul-18 19:17 41.381912 -110.064387 289 36177ft 431kts
27-Jul-18 19:18 41.433339 -110.208561 289 36185ft 430kts
27-Jul-18 19:19 41.484519 -110.352868 289 36189ft 431kts
27-Jul-18 19:20 41.535681 -110.497827 289 36189ft 432kts
27-Jul-18 19:21 41.586625 -110.642851 289 36186ft 431kts
27-Jul-18 19:22 41.637273 -110.787810 288 36183ft 431kts
27-Jul-18 19:23 41.687843 -110.933322 289 36174ft 432kts
27-Jul-18 19:24 41.738276 -111.079118 288 36156ft 431kts
27-Jul-18 19:25 41.788629 -111.225473 288 36130ft 432kts
27-Jul-18 19:26 41.838843 -111.372304 288 36106ft 434kts
27-Jul-18 19:27 41.888877 -111.519329 288 36073ft 434kts
27-Jul-18 19:28 41.938842 -111.666908 288 36060ft 435kts
27-Jul-18 19:29 41.988838 -111.815359 288 36059ft 436kts
27-Jul-18 19:30 42.038738 -111.964400 288 36054ft 435kts
27-Jul-18 19:31 42.088394 -112.112678 288 36056ft 435kts
27-Jul-18 19:32 42.137861 -112.262070 287 36052ft 436kts
27-Jul-18 19:33 42.187065 -112.411236 290 36050ft 437kts
27-Jul-18 19:34 42.257774 -112.547780 302 36051ft 449kts
27-Jul-18 19:35 42.323310 -112.657129 303 36039ft 450kts
27-Jul-18 19:36 42.414840 -112.810849 303 36035ft 451kts
27-Jul-18 19:37 42.494271 -112.943610 303 36032ft 453kts
27-Jul-18 19:38 42.573233 -113.076748 303 36026ft 453kts
27-Jul-18 19:39 42.652164 -113.210624 303 36021ft 454kts
27-Jul-18 19:40 42.731065 -113.345099 303 34809ft 453kts
27-Jul-18 19:41 42.809472 -113.479374 302 32812ft 455kts
27-Jul-18 19:42 42.887156 -113.613026 302 30811ft 443kts
27-Jul-18 19:43 42.950017 -113.721610 302 29142ft 432kts
27-Jul-18 19:44 43.023374 -113.848284 303 27240ft 419kts
27-Jul-18 19:45 43.094507 -113.972465 303 25433ft 408kts
27-Jul-18 19:46 43.159581 -114.096077 292 23795ft 392kts
27-Jul-18 19:47 43.191553 -114.235938 282 22496ft 381kts
27-Jul-18 19:48 43.218415 -114.375413 281 21193ft 374kts
27-Jul-18 19:49 43.244510 -114.512009 282 19895ft 368kts
27-Jul-18 19:50 43.270224 -114.646943 282 18591ft 362kts
27-Jul-18 19:51 43.295670 -114.779480 282 17292ft 356kts
27-Jul-18 19:52 43.320304 -114.910237 282 15990ft 350kts
27-Jul-18 19:53 43.344225 -115.038802 282 14700ft 345kts
27-Jul-18 19:54 43.368046 -115.166842 282 13594ft 344kts
27-Jul-18 19:55 43.391415 -115.294251 282 12589ft 337kts
27-Jul-18 19:56 43.414166 -115.417788 282 11372ft 328kts
27-Jul-18 19:57 43.436106 -115.538257 282 9896ft 321kts
27-Jul-18 19:58 43.449223 -115.652129 271 9339ft 289kts
27-Jul-18 19:59 43.457973 -115.761362 276 8655ft 282kts
27-Jul-18 20:00 43.468463 -115.864050 275 7651ft 263kts
27-Jul-18 20:01 43.478273 -115.963022 278 6649ft 259kts
27-Jul-18 20:02 43.506802 -116.053086 295 6494ft 260kts
27-Jul-18 20:03 43.537097 -116.137219 291 4533ft 228kts
27-Jul-18 20:04 43.560631 -116.209401 293 2903ft 170kts
27-Jul-18 20:05 43.570376 -116.236251 357 2879ft 11kts
27-Jul-18 20:06 43.569246 -116.230484 116 2879ft 21kts
27-Jul-18 20:07 43.568037 -116.226855 114 2879ft 17kts
27-Jul-18 20:08 43.566866 -116.221301 84 2879ft 9kts
27-Jul-18 20:09 43.567239 -116.220670 23 2879ft 0kts
27-Jul-18 20:10 43.567239 -116.220670 23 2879ft 0kts
27-Jul-18 20:11 43.567239 -116.220670 23 2879ft 0kts
27-Jul-18 20:12 43.567239 -116.220670 23 2879ft 0kts
27-Jul-18 20:13 43.567239 -116.220670 23 2879ft 0kts

Navigation Log

Ident Type
Flight plan parsing failed, navigation log unavailable